Terminal Aerodrome Forecast
Issued by NWS

Home | Current Version | Previous Version | Text Only | Print | Product List | Glossary On
Versions: 1 2 3 4 5 6 7 8 9 10 11 12 13 14 15 16 17 18
000
FTUS45 KGJT 211222 AAA
TAFEGE
TAF AMD
KEGE 211222Z 2112/2212 08006KT P6SM OVC060
     FM211400 18004KT P6SM SCT045
     FM211800 VRB03KT P6SM FEW070 SCT250
     FM212000 24008KT P6SM SCT110 BKN250
     FM220400 21010G18KT P6SM BKN070
     FM220600 25017G27KT P6SM BKN060
      AMD LTD TO CLD VIS AND WIND TIL 211300=

USA.gov is the U.S. government's official web portal to all federal, state and local government web resources and services.